createdAt,value
2018-12-16T00:00:15.435Z,14.00
2018-12-16T00:02:46.623Z,15.57
2018-12-16T00:05:17.556Z,11.70
2018-12-16T00:07:47.156Z,13.25
2018-12-16T00:10:16.735Z,13.70
2018-12-16T00:12:46.278Z,14.90
2018-12-16T00:15:15.575Z,15.40
2018-12-16T00:17:45.159Z,15.72
2018-12-16T00:20:20.595Z,11.63
2018-12-16T00:22:49.999Z,11.67
2018-12-16T00:25:19.738Z,13.58
2018-12-16T00:27:49.317Z,13.87
2018-12-16T00:30:18.592Z,11.43
2018-12-16T00:32:47.884Z,15.43
2018-12-16T00:35:17.730Z,10.38
2018-12-16T00:37:47.352Z,10.00
2018-12-16T00:40:17.540Z,10.50
2018-12-16T00:42:47.045Z,14.33
2018-12-16T00:45:16.576Z,12.88
2018-12-16T00:47:47.476Z,15.07
2018-12-16T00:50:17.388Z,15.18
2018-12-16T00:52:46.680Z,12.80
2018-12-16T00:55:15.981Z,12.20
2018-12-16T00:57:45.832Z,15.67
2018-12-16T01:00:15.505Z,14.33
2018-12-16T01:02:45.016Z,15.63
2018-12-16T01:05:14.440Z,12.90
2018-12-16T01:07:43.721Z,13.60
2018-12-16T01:10:13.424Z,15.45
2018-12-16T01:12:42.729Z,14.37
2018-12-16T01:15:12.312Z,12.78
2018-12-16T01:17:41.663Z,13.77
2018-12-16T01:20:11.549Z,12.53
2018-12-16T01:22:43.516Z,15.23
2018-12-16T01:25:12.461Z,8.38
2018-12-16T01:27:42.264Z,11.38
2018-12-16T01:30:12.709Z,14.30
2018-12-16T01:32:42.476Z,16.10
2018-12-16T01:35:11.765Z,15.57
2018-12-16T01:37:41.037Z,14.40
2018-12-16T01:40:10.703Z,12.50
2018-12-16T01:42:39.967Z,13.47
2018-12-16T01:45:09.580Z,13.97
2018-12-16T01:47:38.860Z,13.70
2018-12-16T01:50:08.436Z,14.80
2018-12-16T01:52:37.795Z,14.53
2018-12-16T01:55:08.584Z,15.47
2018-12-16T01:57:38.761Z,13.03
2018-12-16T02:00:10.101Z,14.50
2018-12-16T02:02:40.681Z,13.93
2018-12-16T02:05:09.977Z,14.63
2018-12-16T02:07:39.479Z,13.53
2018-12-16T02:10:08.767Z,9.53
2018-12-16T02:12:38.044Z,13.70
2018-12-16T02:15:07.787Z,14.73
2018-12-16T02:17:37.063Z,9.20
2018-12-16T02:20:07.300Z,12.78
2018-12-16T02:22:36.588Z,10.40
2018-12-16T02:25:07.247Z,14.13
2018-12-16T02:27:36.627Z,14.77
2018-12-16T02:30:06.208Z,14.80
2018-12-16T02:32:35.911Z,13.47
2018-12-16T02:35:06.023Z,14.60
2018-12-16T02:37:35.607Z,13.03
2018-12-16T02:40:05.956Z,14.63
2018-12-16T02:42:35.241Z,13.70
2018-12-16T02:45:06.063Z,14.20
2018-12-16T02:47:35.667Z,11.37
2018-12-16T02:50:06.997Z,14.00
2018-12-16T02:52:36.287Z,13.60
2018-12-16T02:55:05.571Z,14.20
2018-12-16T02:57:34.888Z,12.23
2018-12-16T03:00:05.481Z,15.17
2018-12-16T03:02:36.508Z,11.65
2018-12-16T03:05:06.909Z,12.28
2018-12-16T03:07:36.481Z,15.98
2018-12-16T03:10:06.981Z,13.10
2018-12-16T03:12:36.560Z,11.75
2018-12-16T03:15:06.419Z,11.60
2018-12-16T03:17:35.698Z,12.80
2018-12-16T03:20:06.392Z,8.83
2018-12-16T03:22:35.685Z,13.97
2018-12-16T03:25:06.588Z,15.80
2018-12-16T03:27:35.864Z,15.20
2018-12-16T03:30:08.666Z,16.20
2018-12-16T03:32:38.193Z,15.27
2018-12-16T03:35:09.475Z,15.70
2018-12-16T03:37:38.904Z,12.33
2018-12-16T03:40:08.287Z,15.00
2018-12-16T03:42:37.832Z,13.30
2018-12-16T03:45:08.473Z,14.60
2018-12-16T03:47:37.767Z,13.10
2018-12-16T03:50:07.081Z,16.60
2018-12-16T03:52:36.664Z,15.08
2018-12-16T03:55:06.272Z,12.80
2018-12-16T03:57:35.851Z,14.93
2018-12-16T04:00:06.853Z,12.40
2018-12-16T04:02:36.128Z,15.73
2018-12-16T04:05:06.231Z,13.95
2018-12-16T04:07:35.812Z,16.23
2018-12-16T04:10:06.341Z,17.10
2018-12-16T04:12:35.861Z,14.20
2018-12-16T04:15:06.559Z,13.60
2018-12-16T04:17:35.835Z,15.10
2018-12-16T04:20:05.748Z,15.37
2018-12-16T04:22:35.039Z,13.60
2018-12-16T04:25:06.281Z,15.68
2018-12-16T04:27:35.564Z,14.20
2018-12-16T04:30:06.307Z,13.45
2018-12-16T04:32:35.837Z,15.17
2018-12-16T04:35:07.283Z,12.23
2018-12-16T04:37:36.920Z,11.27
2018-12-16T04:40:06.609Z,15.13
2018-12-16T04:42:35.882Z,13.97
2018-12-16T04:45:05.563Z,12.00
2018-12-16T04:47:35.131Z,13.07
2018-12-16T04:50:06.104Z,14.00
2018-12-16T04:52:35.863Z,13.03
2018-12-16T04:55:06.405Z,12.60
2018-12-16T04:57:36.039Z,8.38
2018-12-16T05:00:06.135Z,14.43
2018-12-16T05:02:36.324Z,8.10
2018-12-16T05:05:06.299Z,15.40
2018-12-16T05:07:35.894Z,9.80
2018-12-16T05:33:30.091Z,12.63
2018-12-16T05:35:59.378Z,12.43
2018-12-16T05:38:28.664Z,10.07
2018-12-16T05:40:58.083Z,13.20
2018-12-16T05:43:27.913Z,13.43
2018-12-16T05:45:57.200Z,12.60
2018-12-16T05:48:26.780Z,11.15
2018-12-16T05:50:56.160Z,12.87
2018-12-16T05:53:25.458Z,10.97
2018-12-16T05:55:54.727Z,11.83
2018-12-16T05:58:24.300Z,12.88
2018-12-16T06:00:54.816Z,12.77
2018-12-16T06:03:24.088Z,11.07
2018-12-16T06:05:53.372Z,7.93
2018-12-16T06:08:22.652Z,12.00
2018-12-16T06:10:51.944Z,11.90
2018-12-16T06:13:21.216Z,15.53
2018-12-16T06:15:50.505Z,13.90
2018-12-16T06:18:20.106Z,12.78
2018-12-16T06:20:49.384Z,11.57
2018-12-16T06:23:18.971Z,12.82
2018-12-16T06:25:48.259Z,12.60
2018-12-16T06:28:17.604Z,12.77
2018-12-16T06:30:47.471Z,10.63
2018-12-16T06:33:16.708Z,11.63
2018-12-16T06:35:46.042Z,11.90
2018-12-16T06:38:15.647Z,11.90
2018-12-16T06:40:44.931Z,13.17
2018-12-16T06:43:14.284Z,12.00
2018-12-16T06:45:43.564Z,14.00
2018-12-16T06:48:12.855Z,12.57
2018-12-16T06:50:42.355Z,12.93
2018-12-16T06:53:11.726Z,12.40
2018-12-16T06:55:43.438Z,12.23
2018-12-16T06:58:12.646Z,12.67
2018-12-16T07:00:41.966Z,14.00
2018-12-16T07:03:12.504Z,11.80
2018-12-16T07:05:42.081Z,13.22
2018-12-16T07:08:11.667Z,11.80
2018-12-16T07:10:41.268Z,12.70
2018-12-16T07:13:11.136Z,14.30
2018-12-16T07:15:40.655Z,12.83
2018-12-16T07:18:10.420Z,11.95
2018-12-16T07:20:39.703Z,11.00
2018-12-16T07:23:09.055Z,12.70
2018-12-16T07:25:38.612Z,11.50
2018-12-16T07:28:07.905Z,12.17
2018-12-16T07:30:38.156Z,10.80
2018-12-16T07:33:08.748Z,12.20
2018-12-16T07:35:38.566Z,12.80
2018-12-16T07:38:07.875Z,12.70
2018-12-16T07:40:37.517Z,11.90
2018-12-16T07:43:07.128Z,12.43
2018-12-16T07:45:36.566Z,13.07
2018-12-16T07:48:07.038Z,9.53
2018-12-16T07:50:36.672Z,10.03
2018-12-16T08:15:14.480Z,11.90
2018-12-16T08:17:44.752Z,7.87
2018-12-16T08:20:14.052Z,12.83
2018-12-16T08:22:45.336Z,11.83
2018-12-16T08:25:14.668Z,12.50
2018-12-16T08:27:44.240Z,15.20
2018-12-16T08:30:13.687Z,14.97
2018-12-16T08:32:42.964Z,13.97
2018-12-16T08:35:12.605Z,11.57
2018-12-16T08:37:41.879Z,11.50
2018-12-16T08:40:11.502Z,10.33
2018-12-16T08:42:41.303Z,12.00
2018-12-16T08:45:10.892Z,14.10
2018-12-16T08:47:40.526Z,11.03
2018-12-16T08:50:09.881Z,12.13
2018-12-16T08:52:39.466Z,11.53
2018-12-16T08:55:09.000Z,14.27
2018-12-16T08:57:38.317Z,14.83
2018-12-16T09:00:08.127Z,14.37
2018-12-16T09:02:37.768Z,12.50
2018-12-16T09:05:07.084Z,14.67
2018-12-16T09:07:37.440Z,15.93
2018-12-16T09:10:09.210Z,12.30
2018-12-16T09:12:39.548Z,12.90
2018-12-16T09:15:09.863Z,13.83
2018-12-16T10:36:48.024Z,19.57
2018-12-16T11:17:14.538Z,19.47
2018-12-16T11:19:43.836Z,17.57
2018-12-16T11:22:13.116Z,16.60
2018-12-16T11:24:44.424Z,18.70
2018-12-16T11:27:13.997Z,17.80
2018-12-16T11:29:43.292Z,19.03
2018-12-16T11:32:12.866Z,16.73
2018-12-16T11:34:42.147Z,18.53
2018-12-16T11:37:11.479Z,18.20
2018-12-16T11:39:41.016Z,19.50
2018-12-16T11:42:10.495Z,18.77
2018-12-16T11:44:39.858Z,21.77
2018-12-16T11:47:09.387Z,22.53
2018-12-16T11:49:38.961Z,20.07
2018-12-16T11:52:08.385Z,18.60
2018-12-16T11:54:38.101Z,20.13
2018-12-16T11:57:07.396Z,18.50
2018-12-16T11:59:36.980Z,18.82
2018-12-16T12:02:06.259Z,16.17
2018-12-16T12:04:37.205Z,17.73
2018-12-16T12:07:06.708Z,16.10
2018-12-16T12:09:35.996Z,17.93
2018-12-16T12:12:05.348Z,19.30
2018-12-16T12:14:34.647Z,18.13
2018-12-16T12:17:03.967Z,19.97
2018-12-16T12:19:37.952Z,19.37
2018-12-16T12:22:07.736Z,19.35
2018-12-16T12:24:37.331Z,19.70
2018-12-16T12:27:07.539Z,15.05
2018-12-16T12:32:16.047Z,17.50
2018-12-16T12:34:52.368Z,18.30
2018-12-16T12:37:22.582Z,19.80
2018-12-16T12:39:52.204Z,18.70
2018-12-16T12:42:22.469Z,19.30
2018-12-16T12:44:51.744Z,18.70
2018-12-16T12:47:21.044Z,13.65
2018-12-16T12:49:50.360Z,19.73
2018-12-16T12:52:19.770Z,18.27
2018-12-16T12:54:49.057Z,19.17
2018-12-16T12:57:18.397Z,18.57
2018-12-16T12:59:47.713Z,16.60
2018-12-16T13:02:17.362Z,18.30
2018-12-16T13:04:46.604Z,17.30
2018-12-16T13:07:15.928Z,19.70
2018-12-16T13:09:45.412Z,18.70
2018-12-16T13:12:15.272Z,19.93
2018-12-16T13:14:44.816Z,19.50
2018-12-16T13:17:14.397Z,18.50
2018-12-16T13:19:43.671Z,16.90
2018-12-16T13:22:13.347Z,16.37
2018-12-16T13:24:53.955Z,19.87
2018-12-16T13:27:23.570Z,17.57
2018-12-16T13:29:52.836Z,17.93
2018-12-16T13:32:22.463Z,18.62
2018-12-16T13:34:52.096Z,19.17
2018-12-16T13:37:21.438Z,22.70
2018-12-16T13:39:50.961Z,20.73
2018-12-16T13:42:20.711Z,19.90
2018-12-16T13:44:49.991Z,19.30
2018-12-16T13:47:19.315Z,20.97
2018-12-16T13:49:48.624Z,22.20
2018-12-16T13:52:17.931Z,19.57
2018-12-16T13:54:47.898Z,20.60
2018-12-16T13:57:17.783Z,20.12
2018-12-16T13:59:47.067Z,19.70
2018-12-16T14:02:16.979Z,25.85
2018-12-16T14:04:46.265Z,25.43
2018-12-16T14:07:15.867Z,29.30
2018-12-16T14:09:46.071Z,20.27
2018-12-16T14:12:16.097Z,21.80
2018-12-16T14:14:45.449Z,23.23
2018-12-16T14:17:15.592Z,26.42
2018-12-16T14:19:44.867Z,23.87
2018-12-16T14:22:14.491Z,22.15
2018-12-16T14:24:43.771Z,21.10
2018-12-16T14:27:13.122Z,21.20
2018-12-16T14:29:42.656Z,20.77
2018-12-16T14:32:12.503Z,21.73
2018-12-16T14:34:41.787Z,19.30
2018-12-16T14:37:11.080Z,19.97
2018-12-16T14:39:40.668Z,19.83
2018-12-16T14:42:10.496Z,19.93
2018-12-16T14:44:39.847Z,19.90
2018-12-16T14:47:09.144Z,20.20
2018-12-16T14:49:38.620Z,21.07
2018-12-16T14:52:08.171Z,19.37
2018-12-16T14:54:39.412Z,20.43
2018-12-16T14:57:08.972Z,21.40
2018-12-16T14:59:39.335Z,20.37
2018-12-16T15:02:08.836Z,18.63
2018-12-16T15:04:38.652Z,20.60
2018-12-16T15:07:10.840Z,20.80
2018-12-16T15:09:40.427Z,21.02
2018-12-16T15:12:09.919Z,21.73
2018-12-16T15:14:39.268Z,20.47
2018-12-16T15:17:08.875Z,21.33
2018-12-16T15:19:38.176Z,21.87
2018-12-16T15:22:08.113Z,20.90
2018-12-16T15:24:37.713Z,27.07
2018-12-16T15:27:08.139Z,24.00
2018-12-16T15:29:37.431Z,21.20
2018-12-16T15:32:06.753Z,21.37
2018-12-16T15:34:36.046Z,19.57
2018-12-16T15:37:05.624Z,22.65
2018-12-16T15:39:35.252Z,23.50
2018-12-16T15:42:04.800Z,24.20
2018-12-16T15:44:34.401Z,23.30
2018-12-16T15:47:03.683Z,22.33
2018-12-16T15:49:33.647Z,26.00
2018-12-16T15:52:02.949Z,26.40
2018-12-16T15:54:32.259Z,26.70
2018-12-16T15:57:02.097Z,21.00
2018-12-16T15:59:31.701Z,26.50
2018-12-16T16:02:01.127Z,26.33
2018-12-16T16:04:30.711Z,23.10
2018-12-16T16:07:00.024Z,26.83
2018-12-16T16:09:29.612Z,22.95
2018-12-16T16:11:58.893Z,21.87
2018-12-16T16:14:28.500Z,22.20
2018-12-16T16:16:57.845Z,25.13
2018-12-16T16:19:27.423Z,25.77
2018-12-16T16:21:56.743Z,25.67
2018-12-16T16:24:26.051Z,21.63
2018-12-16T16:26:55.400Z,22.00
2018-12-16T16:29:24.984Z,24.18
2018-12-16T16:31:54.796Z,20.48
2018-12-16T16:34:24.115Z,21.00
2018-12-16T16:36:53.696Z,23.85
2018-12-16T16:39:23.278Z,23.40
2018-12-16T16:41:52.896Z,24.03
2018-12-16T16:44:22.484Z,23.95
2018-12-16T16:46:52.059Z,24.33
2018-12-16T16:49:21.360Z,21.03
2018-12-16T16:51:50.874Z,22.90
2018-12-16T16:54:20.232Z,23.63
2018-12-16T16:56:49.520Z,24.43
2018-12-16T16:59:19.111Z,25.10
2018-12-16T17:01:48.391Z,22.67
2018-12-16T17:04:17.979Z,23.80
2018-12-16T17:06:47.367Z,28.57
2018-12-16T17:09:17.293Z,31.35
2018-12-16T17:11:46.587Z,25.90
2018-12-16T17:14:16.128Z,26.77
2018-12-16T17:16:45.427Z,25.30
2018-12-16T17:19:15.016Z,24.50
2018-12-16T17:21:44.720Z,27.37
2018-12-16T17:24:14.268Z,25.77
2018-12-16T17:26:43.552Z,24.30
2018-12-16T17:29:12.916Z,24.53
2018-12-16T17:31:42.202Z,22.73
2018-12-16T17:34:12.457Z,25.30
2018-12-16T17:36:41.711Z,23.73
2018-12-16T17:39:11.229Z,23.07
2018-12-16T17:41:42.167Z,22.30
2018-12-16T17:44:12.470Z,23.42
2018-12-16T17:46:42.061Z,24.23
2018-12-16T17:49:11.344Z,24.50
2018-12-16T17:51:40.924Z,25.12
2018-12-16T17:54:10.244Z,23.40
2018-12-16T17:56:41.128Z,27.40
2018-12-16T17:59:10.447Z,24.93
2018-12-16T18:01:40.161Z,23.37
2018-12-16T18:04:10.286Z,26.73
2018-12-16T18:06:40.149Z,25.00
2018-12-16T18:09:09.976Z,22.53
2018-12-16T18:11:40.335Z,23.77
2018-12-16T18:14:09.615Z,26.13
2018-12-16T18:16:39.190Z,21.40
2018-12-16T18:19:08.794Z,23.50
2018-12-16T18:21:38.084Z,22.90
2018-12-16T18:24:08.367Z,23.50
2018-12-16T18:26:44.036Z,24.20
2018-12-16T18:29:10.132Z,22.73
2018-12-16T18:31:39.435Z,25.00
2018-12-16T18:34:08.927Z,25.17
2018-12-16T18:36:38.551Z,23.93
2018-12-16T18:39:08.645Z,26.10
2018-12-16T18:41:38.050Z,21.60
2018-12-16T18:44:08.203Z,26.52
2018-12-16T18:46:37.492Z,25.87
2018-12-16T18:49:07.897Z,26.47
2018-12-16T18:51:37.585Z,26.77
2018-12-16T18:54:06.899Z,23.17
2018-12-16T18:56:36.476Z,27.52
2018-12-16T18:59:05.783Z,28.20
2018-12-16T19:01:35.143Z,26.83
2018-12-16T19:04:04.436Z,26.83
2018-12-16T19:06:33.776Z,27.80
2018-12-16T19:09:03.064Z,26.00
2018-12-16T19:11:32.355Z,28.40
2018-12-16T19:14:01.633Z,26.30
2018-12-16T19:16:31.212Z,28.07
2018-12-16T19:19:00.713Z,28.67
2018-12-16T19:21:30.151Z,25.87
2018-12-16T19:23:59.444Z,27.87
2018-12-16T19:26:29.453Z,27.48
2018-12-16T19:28:59.928Z,25.90
2018-12-16T19:31:29.472Z,28.13
2018-12-16T19:33:58.748Z,29.50
2018-12-16T19:36:28.032Z,28.20
2018-12-16T19:38:57.311Z,29.93
2018-12-16T19:41:27.138Z,28.80
2018-12-16T19:43:56.421Z,27.40
2018-12-16T19:46:26.012Z,28.00
2018-12-16T19:48:55.337Z,25.90
2018-12-16T19:51:24.696Z,27.67
2018-12-16T19:53:54.268Z,28.75
2018-12-16T19:56:23.788Z,28.10
2018-12-16T19:58:53.509Z,28.10
2018-12-16T20:01:22.811Z,26.90
2018-12-16T20:03:57.704Z,30.07
2018-12-16T20:06:32.409Z,30.63
2018-12-16T20:09:01.692Z,29.47
2018-12-16T20:11:31.500Z,31.48
2018-12-16T20:14:01.048Z,26.10
2018-12-16T20:16:30.344Z,27.90
2018-12-16T20:18:59.628Z,29.50
2018-12-16T20:21:28.984Z,28.53
2018-12-16T20:23:58.515Z,30.60
2018-12-16T20:26:27.800Z,30.03
2018-12-16T20:28:57.386Z,29.47
2018-12-16T20:31:26.785Z,27.63
2018-12-16T20:33:56.479Z,27.57
2018-12-16T20:36:25.772Z,28.73
2018-12-16T20:38:55.415Z,28.33
2018-12-16T20:41:24.788Z,28.13
2018-12-16T20:43:54.380Z,27.15
2018-12-16T20:46:23.648Z,28.30
2018-12-16T20:48:52.928Z,27.20
2018-12-16T20:51:22.517Z,28.17
2018-12-16T20:53:51.840Z,29.23
2018-12-16T20:56:22.415Z,27.85
2018-12-16T20:58:51.744Z,28.23
2018-12-16T21:01:21.032Z,28.83
2018-12-16T21:03:50.534Z,30.27
2018-12-16T21:06:20.061Z,25.23
2018-12-16T21:08:49.592Z,28.90
2018-12-16T21:11:24.725Z,27.73
2018-12-16T21:13:59.756Z,28.00
2018-12-16T21:16:34.364Z,29.87
2018-12-16T21:19:03.657Z,28.40
2018-12-16T21:21:32.959Z,29.17
2018-12-16T21:24:02.557Z,30.60
2018-12-16T21:26:31.843Z,28.77
2018-12-16T21:29:01.132Z,27.80
2018-12-16T21:31:30.628Z,30.50
2018-12-16T21:34:00.267Z,31.03
2018-12-16T21:36:30.725Z,32.30
2018-12-16T21:39:00.360Z,29.20
2018-12-16T21:41:29.645Z,30.60
2018-12-16T21:43:58.929Z,31.50
2018-12-16T21:46:28.212Z,29.60
2018-12-16T21:48:58.295Z,29.37
2018-12-16T21:51:27.873Z,29.00
2018-12-16T21:53:57.172Z,29.80
2018-12-16T21:56:26.760Z,27.67
2018-12-16T21:58:56.046Z,29.73
2018-12-16T22:01:25.629Z,27.50
2018-12-16T22:03:54.931Z,31.60
2018-12-16T22:06:24.209Z,32.63
2018-12-16T22:08:53.657Z,33.30
2018-12-16T22:11:23.239Z,32.63
2018-12-16T22:13:52.640Z,33.10
2018-12-16T22:16:22.670Z,32.17
2018-12-16T22:18:51.971Z,32.63
2018-12-16T22:21:21.786Z,36.40
2018-12-16T22:23:51.969Z,33.50
2018-12-16T22:26:22.790Z,32.08
2018-12-16T22:28:52.065Z,33.00
2018-12-16T22:31:22.009Z,34.33
2018-12-16T22:33:51.812Z,38.77
2018-12-16T22:36:22.961Z,36.87
2018-12-16T22:38:53.031Z,37.73
2018-12-16T22:41:22.320Z,38.60
2018-12-16T22:43:51.956Z,40.17
2018-12-16T22:46:22.257Z,38.55
2018-12-16T22:48:51.861Z,38.85
2018-12-16T22:51:21.257Z,38.67
2018-12-16T22:53:51.576Z,37.53
2018-12-16T22:56:20.873Z,41.20
2018-12-16T22:58:54.341Z,37.40
2018-12-16T23:01:22.074Z,38.70
2018-12-16T23:03:51.686Z,39.87
2018-12-16T23:06:21.289Z,38.67
2018-12-16T23:08:51.121Z,35.13
2018-12-16T23:11:20.688Z,49.90
2018-12-16T23:13:50.008Z,44.90
2018-12-16T23:16:19.306Z,38.47
2018-12-16T23:18:48.874Z,39.10
2018-12-16T23:21:18.306Z,41.20
2018-12-16T23:23:47.931Z,37.57
2018-12-16T23:26:17.977Z,40.55
2018-12-16T23:28:47.862Z,35.23
2018-12-16T23:31:17.461Z,37.30
2018-12-16T23:33:47.004Z,36.70
2018-12-16T23:36:16.899Z,37.50
2018-12-16T23:38:47.252Z,36.50
2018-12-16T23:41:16.845Z,39.92
2018-12-16T23:43:46.177Z,35.00
2018-12-16T23:46:17.943Z,36.90
2018-12-16T23:48:47.968Z,38.50
2018-12-16T23:51:17.487Z,34.50
2018-12-16T23:53:46.950Z,36.90
2018-12-16T23:56:16.464Z,40.57
2018-12-16T23:58:45.817Z,39.03
